Flight Track Log - Related Links

Times and Time Zones

All times are in EDT time to prevent confusion due to time zone crossing. See the TFX114 flight status page for this flight to view local times or setup timezone preferences in your user account.

Time Position Orientation Groundspeed Altitude Reporting Facility
EDT Latitude Longitude Course Direction KTS MPH feet Rate Location/Type
Thu 06:54:59 PM -28.8345 153.5624 289° West 1,900  Level Aus ATC (Calculated)
Thu 06:55:33 PM -28.8200 153.5153 37° Northeast 178 205 3,400 2,357 Climbing Aus ATC (RADAR)
Thu 06:56:23 PM -28.7781 153.5520 37° Northeast 222 255 5,200 2,308 Climbing Aus ATC (RADAR)
Thu 06:56:38 PM -28.7641 153.5573 18° North 224 258 5,900 568 Climbing Aus ATC (RADAR)
Thu 06:57:58 PM -28.6684 153.5440 353° North 277 319 6,100 114 Climbing Aus ATC (RADAR)
Thu 06:58:23 PM -28.6353 153.5408 355° North 283 326 6,100  Level Aus ATC (RADAR)
Thu 06:58:48 PM -28.6024 153.5382 356° North 284 327 6,100  Level Aus ATC (RADAR)
Thu 06:59:23 PM -28.5560 153.5352 357° North 285 328 6,100  Level Aus ATC (RADAR)
Thu 07:00:09 PM -28.4973 153.5434 North 282 325 6,100  Level Aus ATC (RADAR)
Thu 07:00:43 PM -28.4544 153.5617 21° North 282 325 6,100 -835 Level Aus ATC (RADAR)
Thu 07:01:28 PM -28.4020 153.5846 21° North 269 310 5,000 -1,629 Descending Aus ATC (RADAR)
Thu 07:01:53 PM -28.3723 153.5980 22° Northeast 274 315 4,200 -1,543 Descending Aus ATC (RADAR)
Thu 07:03:13 PM -28.2777 153.6453 24° Northeast 281 323 2,300 -1,200 Descending Aus ATC (RADAR)
Thu 07:03:38 PM -28.2476 153.6382 348° North 265 305 2,100 -400 Descending Aus ATC (RADAR)
Thu 07:04:13 PM -28.2099 153.6232 341° North 246 283 1,900 -353 Descending Aus ATC (RADAR)
Thu 07:05:03 PM -28.1610 153.5988 336° Northwest 220 253 1,600 -214 Descending Aus ATC (RADAR)
Thu 07:05:37 PM -28.1330 153.5838 335° Northwest 191 220 1,600  Level Aus ATC (RADAR)
Thu 07:06:27 PM -28.1088 153.5542 313° West 156 180 1,600 -240 Level Aus ATC (RADAR)
Thu 07:06:52 PM -28.1090 153.5353 269° West 145 167 1,300 -467 Descending Aus ATC (RADAR)
Thu 07:07:57 PM -28.1259 153.4944 245° Southwest 138 159 900 -505 Descending Aus ATC (RADAR)
Thu 07:08:27 PM -28.1412 153.4900 194° South 132 152 500 -873 Descending Aus ATC (RADAR)
Thu 07:08:52 PM -28.1533 153.4984 149° Southeast 120 138 100 -400 Descending Aus ATC (RADAR)
Thu 07:09:27 PM -28.1648 153.5054 151° Southeast 68 78 100  Level Aus ATC (RADAR)

Login

Don't have an account? Register now (free) for customized features, flight alerts, and more!